Terminal Aerodrome Forecast
Issued by NWS Newport/Morehead City, NC

Home | Current Version | Previous Version | Text Only | Print | Product List | Glossary Off
Versions: 1 2 3 4 5 6 7 8 9 10 11 12 13 14 15 16 17 18 19 20

000
FTUS42 KMHX 220548
TAFEWN
TAF
KEWN 220548Z 2206/2306 22004KT 2SM BR BKN015
     FM220800 23007KT 2SM BR BKN009
     FM221300 24005KT 3SM -SHRA BR BKN005
     FM221700 19006KT P6SM SHRA BKN007
     FM230000 16006KT 3SM SHRA BR VCTS OVC025CB=

USA.gov is the U.S. government's official web portal to all federal, state and local government web resources and services.